Time;durP1;ratioP1;P1;durP2;ratioP2;P2;SDS_P1;SDS_P2;PMS_P1;PMS_P2;Temp;Humidity;BMP_temperature;BMP_pressure;BME280_temperature;BME280_humidity;BME280_pressure;Samples;Min_cycle;Max_cycle;Signal;HPM_P1;HPM_P2
2023/09/17 00:00:11;;;;;;;2.85;1.95;;;;;;;19.52;100.00;98314.66;4139332;28;20291;-86
2023/09/17 00:02:12;;;;;;;2.10;2.00;;;;;;;19.61;100.00;98321.09;4120370;28;20240;-87
2023/09/17 00:04:14;;;;;;;2.72;2.53;;;;;;;19.73;100.00;98316.66;4136365;28;20319;-86
2023/09/17 00:06:17;;;;;;;1.67;1.50;;;;;;;19.79;100.00;98314.56;4119413;28;20214;-88
2023/09/17 00:08:18;;;;;;;2.35;2.15;;;;;;;19.90;100.00;98321.53;4126181;28;20221;-86
2023/09/17 00:10:22;;;;;;;2.28;1.92;;;;;;;19.90;100.00;98315.97;4128425;28;20260;-86
2023/09/17 00:12:28;;;;;;;3.15;2.50;;;;;;;19.92;100.00;98324.81;4143736;28;20215;-87
2023/09/17 00:14:38;;;;;;;2.53;1.85;;;;;;;20.01;100.00;98320.13;4139078;28;20308;-87
2023/09/17 00:16:39;;;;;;;2.53;2.33;;;;;;;19.97;100.00;98321.91;4137628;28;20212;-87
2023/09/17 00:18:41;;;;;;;1.95;1.77;;;;;;;19.94;100.00;98316.97;4139975;28;20792;-86
2023/09/17 00:20:42;;;;;;;2.35;2.15;;;;;;;19.92;100.00;98317.28;4136549;28;20687;-87
2023/09/17 00:22:44;;;;;;;2.20;1.98;;;;;;;19.99;100.00;98319.63;4138271;28;20758;-87
2023/09/17 00:24:46;;;;;;;2.83;2.28;;;;;;;19.88;100.00;98324.59;4140923;28;20255;-87
2023/09/17 00:26:47;;;;;;;2.40;2.00;;;;;;;19.87;100.00;98319.34;4127076;28;20910;-87
2023/09/17 00:28:49;;;;;;;7.03;2.05;;;;;;;19.88;100.00;98329.34;4128215;28;20236;-87
2023/09/17 00:30:51;;;;;;;2.85;2.60;;;;;;;20.00;100.00;98318.47;4143865;28;20240;-87
2023/09/17 00:33:03;;;;;;;2.42;2.00;;;;;;;19.67;100.00;98322.63;4143363;28;20200;-87
2023/09/17 00:35:05;;;;;;;2.35;2.13;;;;;;;19.69;100.00;98320.34;4125987;28;20216;-87
2023/09/17 00:37:07;;;;;;;3.50;2.58;;;;;;;19.77;100.00;98312.09;4140207;28;20208;-87
2023/09/17 00:39:09;;;;;;;3.90;2.42;;;;;;;19.80;100.00;98307.88;4126881;28;20206;-86
2023/09/17 00:41:10;;;;;;;2.83;2.47;;;;;;;19.45;100.00;98314.25;4159267;28;20204;-87
2023/09/17 00:43:12;;;;;;;8.02;2.70;;;;;;;19.52;100.00;98306.31;4140450;28;20206;-87
2023/09/17 00:45:13;;;;;;;2.17;1.98;;;;;;;19.59;100.00;98304.75;4138940;28;20643;-87
2023/09/17 00:47:15;;;;;;;3.58;2.78;;;;;;;19.62;100.00;98308.84;4123223;28;20225;-86
2023/09/17 00:49:17;;;;;;;3.20;2.70;;;;;;;19.66;100.00;98304.31;4124128;28;20201;-86
2023/09/17 00:51:19;;;;;;;2.97;2.20;;;;;;;19.67;100.00;98308.72;4127221;28;20853;-88
2023/09/17 00:53:29;;;;;;;2.97;2.78;;;;;;;19.71;100.00;98312.53;4130329;28;20237;-87
2023/09/17 00:55:33;;;;;;;3.60;3.00;;;;;;;19.77;100.00;98316.84;4145473;28;20205;-86
2023/09/17 00:57:36;;;;;;;2.63;2.40;;;;;;;19.76;100.00;98315.16;4140065;28;20238;-87
2023/09/17 00:59:39;;;;;;;2.78;2.58;;;;;;;19.63;100.00;98321.59;4137330;28;20240;-86
2023/09/17 01:01:42;;;;;;;2.75;2.53;;;;;;;19.60;100.00;98323.06;4136670;28;20213;-87
2023/09/17 01:03:44;;;;;;;3.38;3.08;;;;;;;19.54;100.00;98306.81;4121181;28;20685;-87
2023/09/17 01:05:46;;;;;;;3.08;2.17;;;;;;;19.45;100.00;98309.50;4124040;28;20205;-86
2023/09/17 01:07:58;;;;;;;3.13;2.67;;;;;;;19.51;100.00;98313.81;4138213;28;20323;-86
2023/09/17 01:10:00;;;;;;;3.83;3.13;;;;;;;19.36;100.00;98316.09;4124269;28;20197;-87
2023/09/17 01:12:01;;;;;;;10.88;2.83;;;;;;;19.37;100.00;98315.00;4158355;28;20634;-86
2023/09/17 01:14:15;;;;;;;3.63;2.40;;;;;;;19.42;100.00;98321.25;4142685;28;20205;-87
2023/09/17 01:16:24;;;;;;;3.35;2.58;;;;;;;19.47;100.00;98323.09;4124838;28;20213;-87
2023/09/17 01:18:27;;;;;;;3.38;3.08;;;;;;;19.49;100.00;98321.66;4158663;28;20338;-86
2023/09/17 01:20:33;;;;;;;3.10;2.75;;;;;;;19.51;100.00;98315.78;4123150;28;20263;-86
2023/09/17 01:22:39;;;;;;;2.38;2.17;;;;;;;19.47;100.00;98323.91;4140457;28;20209;-86
2023/09/17 01:24:48;;;;;;;4.65;2.75;;;;;;;19.53;100.00;98310.75;4140225;28;20209;-86
2023/09/17 01:27:05;;;;;;;5.13;2.80;;;;;;;19.44;100.00;98313.41;4143864;28;20267;-88
2023/09/17 01:29:13;;;;;;;3.55;2.78;;;;;;;19.39;100.00;98313.53;4125548;28;20205;-87
2023/09/17 01:31:15;;;;;;;6.30;2.55;;;;;;;19.44;100.00;98309.84;4143202;28;20369;-87
2023/09/17 01:33:17;;;;;;;10.02;2.67;;;;;;;19.30;100.00;98318.19;4125570;28;20252;-87
2023/09/17 01:35:19;;;;;;;3.83;2.15;;;;;;;19.25;100.00;98309.16;4124795;28;20297;-87
2023/09/17 01:37:30;;;;;;;2.95;2.28;;;;;;;19.26;100.00;98316.34;4141453;28;20252;-86
2023/09/17 01:39:36;;;;;;;3.30;2.35;;;;;;;19.25;100.00;98320.25;4139384;28;20304;-86
2023/09/17 01:41:39;;;;;;;2.85;2.53;;;;;;;19.21;100.00;98319.22;4122790;28;20617;-86
2023/09/17 01:43:43;;;;;;;3.08;2.47;;;;;;;19.18;100.00;98317.06;4140583;28;20213;-86
2023/09/17 01:45:45;;;;;;;3.45;2.65;;;;;;;19.12;100.00;98321.88;4137981;28;20686;-87
2023/09/17 01:47:49;;;;;;;3.88;2.97;;;;;;;19.18;100.00;98330.94;4138476;28;20225;-87
2023/09/17 01:49:50;;;;;;;2.70;2.10;;;;;;;19.12;100.00;98315.50;4139285;28;20205;-87
2023/09/17 01:51:56;;;;;;;2.55;2.30;;;;;;;19.13;100.00;98331.03;4154528;28;20227;-87
2023/09/17 01:53:58;;;;;;;3.55;2.72;;;;;;;19.16;100.00;98327.63;4124296;28;20209;-86
2023/09/17 01:55:59;;;;;;;2.60;2.40;;;;;;;19.19;100.00;98324.25;4139918;28;20205;-86
2023/09/17 01:58:13;;;;;;;2.92;2.50;;;;;;;19.21;100.00;98330.31;4124703;28;20214;-86
2023/09/17 02:00:16;;;;;;;2.55;1.90;;;;;;;19.20;100.00;98331.47;4125937;28;20201;-87
2023/09/17 02:02:19;;;;;;;2.80;2.60;;;;;;;19.17;100.00;98318.19;4139372;28;20240;-87
2023/09/17 02:04:21;;;;;;;2.83;2.60;;;;;;;19.19;100.00;98315.91;4126376;28;20687;-87
2023/09/17 02:06:23;;;;;;;2.92;2.13;;;;;;;19.20;100.00;98318.41;4140561;28;20217;-87
2023/09/17 02:08:25;;;;;;;3.10;2.10;;;;;;;19.22;100.00;98323.63;4124739;28;20256;-87
2023/09/17 02:10:38;;;;;;;2.65;1.92;;;;;;;19.18;100.00;98322.59;4127674;28;20561;-86
2023/09/17 02:12:40;;;;;;;3.00;2.50;;;;;;;19.16;100.00;98316.53;4140206;28;20287;-87
2023/09/17 02:14:42;;;;;;;2.88;2.63;;;;;;;19.24;100.00;98313.06;4142988;28;20702;-87
2023/09/17 02:16:43;;;;;;;2.20;1.95;;;;;;;19.20;100.00;98317.59;4137135;28;20668;-88
2023/09/17 02:18:45;;;;;;;3.05;2.85;;;;;;;19.19;100.00;98310.38;4124540;28;20332;-86
2023/09/17 02:20:47;;;;;;;3.03;2.83;;;;;;;19.15;100.00;98312.94;4156741;28;20303;-87
2023/09/17 02:22:48;;;;;;;3.00;2.70;;;;;;;19.12;100.00;98309.97;4152730;28;20291;-88
2023/09/17 02:24:50;;;;;;;4.28;2.95;;;;;;;19.10;100.00;98312.19;4137448;28;20580;-88
2023/09/17 02:26:52;;;;;;;2.50;2.30;;;;;;;19.18;100.00;98314.28;4123167;28;20218;-87
2023/09/17 02:28:53;;;;;;;2.92;1.95;;;;;;;19.12;100.00;98310.78;4138347;28;20225;-87
2023/09/17 02:30:55;;;;;;;2.03;1.85;;;;;;;19.17;100.00;98307.09;4140100;28;20741;-87
2023/09/17 02:32:57;;;;;;;2.95;2.28;;;;;;;19.14;100.00;98302.16;4124811;28;20765;-86
2023/09/17 02:35:00;;;;;;;2.58;2.38;;;;;;;19.17;100.00;98301.53;4124926;28;20665;-86
2023/09/17 02:37:02;;;;;;;1.83;1.67;;;;;;;19.13;100.00;98312.41;4124908;28;20830;-86
2023/09/17 02:39:14;;;;;;;2.53;2.33;;;;;;;19.15;100.00;98303.78;4131718;28;20201;-86
2023/09/17 02:41:15;;;;;;;3.05;2.65;;;;;;;19.15;100.00;98303.78;4140115;28;20216;-87
2023/09/17 02:43:17;;;;;;;2.60;2.17;;;;;;;19.14;100.00;98304.91;4127391;28;20205;-87
2023/09/17 02:45:19;;;;;;;2.25;1.85;;;;;;;19.14;100.00;98307.69;4128788;28;20714;-87
2023/09/17 02:47:20;;;;;;;6.03;2.90;;;;;;;19.14;100.00;98302.16;4144945;28;20236;-87
2023/09/17 02:49:22;;;;;;;3.30;2.30;;;;;;;19.13;100.00;98317.16;4142322;28;20213;-86
2023/09/17 02:51:26;;;;;;;4.15;1.98;;;;;;;19.14;100.00;98313.25;4122846;28;20903;-87
2023/09/17 02:53:28;;;;;;;2.80;2.35;;;;;;;19.15;100.00;98309.34;4138883;28;20297;-87
2023/09/17 02:55:31;;;;;;;7.20;2.60;;;;;;;19.12;100.00;98309.97;4140430;28;20360;-86
2023/09/17 02:57:41;;;;;;;2.97;2.67;;;;;;;19.13;100.00;98311.59;4136272;28;20231;-86
2023/09/17 02:59:42;;;;;;;2.85;2.53;;;;;;;19.11;100.00;98313.88;4125223;28;20209;-86
2023/09/17 03:01:44;;;;;;;2.25;2.05;;;;;;;19.09;100.00;98313.34;4118542;28;20305;-87
2023/09/17 03:03:47;;;;;;;3.47;2.17;;;;;;;19.09;100.00;98310.56;4137745;28;20200;-87
2023/09/17 03:05:49;;;;;;;2.88;2.58;;;;;;;19.06;100.00;98316.75;4125001;28;20207;-87
2023/09/17 03:07:50;;;;;;;2.70;2.35;;;;;;;19.07;100.00;98310.06;4125656;28;20576;-87
2023/09/17 03:09:52;;;;;;;2.83;2.47;;;;;;;19.04;100.00;98314.28;4131406;28;20205;-87
2023/09/17 03:11:56;;;;;;;2.78;2.63;;;;;;;18.93;100.00;98309.25;4141170;28;20216;-87
2023/09/17 03:13:58;;;;;;;2.60;2.40;;;;;;;18.93;100.00;98309.25;4147262;28;20337;-87
2023/09/17 03:16:00;;;;;;;2.45;2.25;;;;;;;18.88;100.00;98303.81;4144588;28;20812;-87
2023/09/17 03:18:15;;;;;;;3.17;2.67;;;;;;;18.85;100.00;98316.34;4144610;28;20630;-87
2023/09/17 03:20:18;;;;;;;2.25;2.00;;;;;;;18.82;100.00;98310.59;4129167;28;20717;-88
2023/09/17 03:22:19;;;;;;;2.30;1.98;;;;;;;18.83;100.00;98303.91;4149835;28;20209;-86
2023/09/17 03:24:21;;;;;;;3.08;2.58;;;;;;;18.76;100.00;98306.25;4126595;28;20209;-87
2023/09/17 03:26:24;;;;;;;2.55;1.98;;;;;;;18.72;100.00;98305.25;4128460;28;20870;-88
2023/09/17 03:28:27;;;;;;;2.85;2.58;;;;;;;18.67;100.00;98308.13;4139985;28;20698;-87
2023/09/17 03:30:28;;;;;;;4.57;2.50;;;;;;;18.61;100.00;98312.13;4125557;28;21244;-88
2023/09/17 03:32:31;;;;;;;4.32;2.65;;;;;;;18.59;100.00;98306.06;4125151;28;20221;-88
2023/09/17 03:35:08;;;;;;;5.57;2.53;;;;;;;18.67;100.00;98302.56;4144937;28;20568;-87
2023/09/17 03:37:13;;;;;;;3.17;2.78;;;;;;;18.58;100.00;98304.44;4142445;28;20205;-87
2023/09/17 03:39:15;;;;;;;2.90;2.60;;;;;;;18.53;100.00;98313.63;4126053;28;20205;-87
2023/09/17 03:41:16;;;;;;;1.88;1.77;;;;;;;18.61;100.00;98312.13;4140050;28;20786;-88
2023/09/17 03:43:18;;;;;;;3.58;3.15;;;;;;;18.49;100.00;98317.34;4139755;28;20260;-88
2023/09/17 03:45:20;;;;;;;3.05;2.42;;;;;;;18.51;100.00;98315.09;4145600;28;20212;-87
2023/09/17 03:47:22;;;;;;;2.60;2.00;;;;;;;18.49;100.00;98311.78;4138288;28;20717;-87
2023/09/17 03:49:26;;;;;;;2.60;1.95;;;;;;;18.51;100.00;98309.56;4122332;28;20316;-87
2023/09/17 03:51:41;;;;;;;2.58;2.38;;;;;;;18.47;100.00;98311.28;4156124;28;20208;-86
2023/09/17 03:53:43;;;;;;;2.30;2.10;;;;;;;18.48;100.00;98312.91;4141879;28;20260;-87
2023/09/17 03:55:45;;;;;;;2.42;2.03;;;;;;;18.44;100.00;98317.44;4144549;28;20661;-87
2023/09/17 03:57:47;;;;;;;3.10;2.40;;;;;;;18.54;100.00;98308.94;4140631;28;20229;-87
2023/09/17 03:59:48;;;;;;;3.83;2.53;;;;;;;18.46;100.00;98306.88;4125299;28;20217;-87
2023/09/17 04:01:50;;;;;;;2.47;1.98;;;;;;;18.43;100.00;98313.00;4141591;28;20272;-87
2023/09/17 04:03:51;;;;;;;2.45;2.25;;;;;;;18.38;100.00;98310.34;4143387;28;20229;-87
2023/09/17 04:06:04;;;;;;;2.08;1.73;;;;;;;18.32;100.00;98311.56;4138859;28;20205;-88
2023/09/17 04:08:06;;;;;;;2.70;2.50;;;;;;;18.25;100.00;98316.66;4144767;28;20320;-88
2023/09/17 04:10:08;;;;;;;3.80;2.90;;;;;;;18.26;100.00;98318.28;4138461;28;20228;-87
2023/09/17 04:12:11;;;;;;;2.75;2.20;;;;;;;18.22;100.00;98311.69;4122549;28;20214;-87
2023/09/17 04:14:12;;;;;;;2.30;2.05;;;;;;;18.21;100.00;98313.66;4125986;28;20210;-86
2023/09/17 04:16:20;;;;;;;1.80;1.67;;;;;;;18.27;100.00;98308.84;4142694;28;20205;-87
2023/09/17 04:18:38;;;;;;;1.88;1.75;;;;;;;18.21;100.00;98304.53;4144579;28;20220;-87
2023/09/17 04:20:39;;;;;;;2.83;2.30;;;;;;;18.23;100.00;98310.56;4158631;28;20208;-88
2023/09/17 04:22:42;;;;;;;2.90;2.58;;;;;;;18.17;100.00;98303.47;4143358;28;20204;-86
2023/09/17 04:24:44;;;;;;;2.72;2.17;;;;;;;18.22;100.00;98301.47;4144942;28;20205;-88
2023/09/17 04:26:54;;;;;;;9.32;2.35;;;;;;;18.05;100.00;98311.47;4135132;28;20209;-88
2023/09/17 04:28:56;;;;;;;2.65;2.45;;;;;;;18.02;100.00;98312.91;4126094;28;20341;-88
2023/09/17 04:30:58;;;;;;;3.40;2.53;;;;;;;18.05;100.00;98308.69;4137283;28;20206;-88
2023/09/17 04:33:01;;;;;;;2.70;2.42;;;;;;;18.11;100.00;98311.06;4143933;28;20222;-88
2023/09/17 04:35:17;;;;;;;2.25;2.05;;;;;;;18.04;100.00;98298.75;4127880;28;20205;-88
2023/09/17 04:37:19;;;;;;;3.35;2.63;;;;;;;18.05;100.00;98303.16;4140297;28;22011;-88
2023/09/17 04:39:21;;;;;;;3.35;3.05;;;;;;;18.02;100.00;98306.53;4142936;28;20761;-88
2023/09/17 04:41:23;;;;;;;2.13;1.90;;;;;;;17.98;100.00;98311.03;4141180;28;20202;-88
2023/09/17 04:43:26;;;;;;;2.33;1.83;;;;;;;17.94;100.00;98307.22;4140137;28;20201;-89
2023/09/17 04:45:37;;;;;;;1.95;1.80;;;;;;;17.94;100.00;98315.53;4141124;28;20209;-88
2023/09/17 04:47:39;;;;;;;2.60;2.35;;;;;;;17.94;100.00;98315.53;4142966;28;20482;-88
2023/09/17 04:49:50;;;;;;;3.38;1.98;;;;;;;17.88;100.00;98316.72;4140868;28;20313;-88
2023/09/17 04:51:51;;;;;;;1.55;1.45;;;;;;;17.85;100.00;98315.38;4123655;28;20229;-88
2023/09/17 04:53:53;;;;;;;2.40;2.15;;;;;;;17.82;100.00;98317.94;4124852;28;20210;-89
2023/09/17 04:55:55;;;;;;;2.35;1.92;;;;;;;17.84;100.00;98324.00;4124296;28;20209;-88
2023/09/17 04:57:56;;;;;;;2.05;1.88;;;;;;;17.85;100.00;98320.91;4142738;28;20288;-88
2023/09/17 05:00:00;;;;;;;1.95;1.75;;;;;;;17.80;100.00;98322.97;4123891;28;20203;-87
2023/09/17 05:02:01;;;;;;;2.58;1.88;;;;;;;17.70;100.00;98323.09;4126294;28;20580;-88
2023/09/17 05:04:03;;;;;;;2.13;1.92;;;;;;;17.67;100.00;98323.72;4129605;28;20652;-88
2023/09/17 05:06:05;;;;;;;2.15;1.75;;;;;;;17.73;100.00;98328.84;4124564;28;20226;-88
2023/09/17 05:08:07;;;;;;;1.83;1.55;;;;;;;17.61;100.00;98325.75;4160323;28;20334;-88
2023/09/17 05:10:19;;;;;;;2.00;1.80;;;;;;;17.54;100.00;98327.22;4145216;28;20302;-87
2023/09/17 05:12:21;;;;;;;1.77;1.65;;;;;;;17.58;100.00;98331.06;4124818;28;20225;-88
2023/09/17 05:14:22;;;;;;;4.05;2.63;;;;;;;17.54;100.00;98333.59;4129857;28;20264;-88
2023/09/17 05:16:24;;;;;;;2.50;2.30;;;;;;;17.59;100.00;98332.69;4125748;28;20347;-88
2023/09/17 05:18:26;;;;;;;2.70;2.30;;;;;;;17.53;100.00;98333.91;4128910;28;20241;-88
2023/09/17 05:20:28;;;;;;;3.10;2.15;;;;;;;17.54;100.00;98332.78;4145648;28;20269;-88
2023/09/17 05:22:32;;;;;;;3.03;2.83;;;;;;;17.57;100.00;98338.53;4143226;28;20201;-88
2023/09/17 05:24:33;;;;;;;2.47;2.00;;;;;;;17.63;100.00;98339.25;4144118;28;21023;-87
2023/09/17 05:26:35;;;;;;;2.50;2.30;;;;;;;17.58;100.00;98345.69;4145386;28;20209;-88
2023/09/17 05:28:36;;;;;;;1.80;1.70;;;;;;;17.58;100.00;98347.66;4125835;28;20232;-89
2023/09/17 05:30:38;;;;;;;2.50;2.15;;;;;;;17.58;100.00;98348.47;4141317;28;20202;-87
2023/09/17 05:32:48;;;;;;;2.08;1.88;;;;;;;17.56;100.00;98352.66;4145300;28;20227;-88
2023/09/17 05:34:50;;;;;;;2.47;2.28;;;;;;;17.60;100.00;98350.94;4147638;28;20275;-88
2023/09/17 05:36:52;;;;;;;2.20;2.00;;;;;;;17.54;100.00;98354.91;4130598;28;20617;-87
2023/09/17 05:38:53;;;;;;;2.42;2.13;;;;;;;17.53;100.00;98356.03;4127833;28;20313;-87
2023/09/17 05:40:56;;;;;;;2.58;2.30;;;;;;;17.54;100.00;98355.75;4127681;28;20221;-88
2023/09/17 05:42:58;;;;;;;2.13;1.83;;;;;;;17.57;100.00;98348.75;4139994;28;20205;-88
2023/09/17 05:44:59;;;;;;;2.17;1.73;;;;;;;17.57;100.00;98359.81;4144101;28;20288;-89
2023/09/17 05:47:01;;;;;;;3.00;2.47;;;;;;;17.56;100.00;98358.19;4142197;28;20237;-88
2023/09/17 05:49:02;;;;;;;2.92;2.00;;;;;;;17.65;100.00;98361.94;4142661;28;20260;-88
2023/09/17 05:51:04;;;;;;;2.15;2.03;;;;;;;17.66;100.00;98363.59;4127598;28;20206;-88
2023/09/17 05:53:06;;;;;;;1.90;1.75;;;;;;;17.65;100.00;98367.47;4129889;28;20213;-88
2023/09/17 05:55:08;;;;;;;3.05;1.63;;;;;;;17.67;100.00;98370.75;4163446;28;20228;-88
2023/09/17 05:57:09;;;;;;;2.85;2.10;;;;;;;17.71;100.00;98366.28;4130692;28;20198;-88
2023/09/17 05:59:21;;;;;;;2.53;2.33;;;;;;;17.76;100.00;98369.78;4147215;28;20217;-87
2023/09/17 06:01:23;;;;;;;2.05;1.90;;;;;;;17.85;100.00;98373.53;4127194;28;20221;-88
2023/09/17 06:03:24;;;;;;;2.83;2.00;;;;;;;17.83;100.00;98363.88;4163562;28;20208;-89
2023/09/17 06:05:26;;;;;;;2.47;2.10;;;;;;;17.87;100.00;98359.38;4144898;28;20300;-88
2023/09/17 06:07:28;;;;;;;2.75;2.50;;;;;;;17.96;100.00;98365.88;4146164;28;20232;-88
2023/09/17 06:09:30;;;;;;;2.60;2.40;;;;;;;17.96;100.00;98368.66;4130875;28;20747;-88
2023/09/17 06:11:32;;;;;;;2.47;2.28;;;;;;;18.04;100.00;98366.03;4145832;28;20214;-87
2023/09/17 06:13:33;;;;;;;2.85;2.47;;;;;;;18.27;100.00;98364.25;4164175;28;20296;-87
2023/09/17 06:15:35;;;;;;;2.28;2.05;;;;;;;18.31;100.00;98366.16;4146692;28;20302;-87
2023/09/17 06:17:37;;;;;;;2.35;2.15;;;;;;;18.98;100.00;98364.63;4124804;28;20237;-88
2023/09/17 06:19:39;;;;;;;3.08;2.65;;;;;;;19.40;100.00;98369.88;4159868;28;20202;-88
2023/09/17 06:21:43;;;;;;;2.55;2.35;;;;;;;19.67;100.00;98372.59;4152172;28;20672;-86
2023/09/17 06:23:55;;;;;;;4.97;2.38;;;;;;;20.11;100.00;98378.25;4158731;28;20204;-86
2023/09/17 06:25:58;;;;;;;2.90;2.30;;;;;;;20.42;100.00;98373.56;4159862;28;20270;-88
2023/09/17 06:28:00;;;;;;;2.40;2.20;;;;;;;20.42;100.00;98373.56;4138092;28;20754;-86
2023/09/17 06:30:02;;;;;;;2.70;2.22;;;;;;;20.46;100.00;98369.88;4164061;28;20253;-87
2023/09/17 06:32:04;;;;;;;2.85;2.58;;;;;;;21.10;100.00;98374.78;4124134;28;20206;-87
2023/09/17 06:34:06;;;;;;;2.60;2.35;;;;;;;21.13;97.93;98373.34;4134334;28;20235;-87
2023/09/17 06:36:07;;;;;;;2.63;2.13;;;;;;;21.34;98.33;98374.38;4145715;28;20201;-87
2023/09/17 06:38:09;;;;;;;6.40;1.98;;;;;;;21.26;95.53;98372.41;4125601;28;20234;-86
2023/09/17 06:40:13;;;;;;;2.25;2.05;;;;;;;21.00;96.68;98374.25;4125459;28;20261;-86
2023/09/17 06:42:15;;;;;;;2.05;1.85;;;;;;;21.41;97.18;98369.16;4131787;28;20228;-86
2023/09/17 06:44:27;;;;;;;2.25;1.85;;;;;;;21.69;93.08;98370.56;4142716;28;20566;-87
2023/09/17 06:46:29;;;;;;;2.53;2.17;;;;;;;22.31;93.26;98374.72;4129607;28;20210;-86
2023/09/17 06:48:31;;;;;;;1.92;1.73;;;;;;;22.80;87.29;98374.16;4141132;28;20220;-86
2023/09/17 06:50:33;;;;;;;9.57;2.10;;;;;;;23.11;86.07;98372.72;4156223;28;20737;-86
2023/09/17 06:52:34;;;;;;;2.78;2.00;;;;;;;23.72;83.46;98385.28;4143284;28;20200;-86
2023/09/17 06:54:36;;;;;;;2.08;1.70;;;;;;;24.01;79.52;98388.88;4141369;28;20587;-86
2023/09/17 06:56:37;;;;;;;2.00;1.85;;;;;;;23.56;80.99;98384.22;4137998;28;20205;-86
2023/09/17 06:58:39;;;;;;;3.15;2.20;;;;;;;24.03;78.16;98384.59;4143300;28;20864;-86
2023/09/17 07:00:41;;;;;;;2.35;2.10;;;;;;;24.14;78.89;98394.19;4126222;28;20237;-86
2023/09/17 07:02:42;;;;;;;1.48;1.38;;;;;;;24.49;76.75;98384.34;4124331;28;20220;-86
2023/09/17 07:04:54;;;;;;;;;;;;;;;;;;;;;
2023/09/17 07:07:00;;;;;;;2.25;2.05;;;;;;;24.91;74.67;98385.09;4158001;28;20211;-86
2023/09/17 07:09:03;;;;;;;2.17;1.98;;;;;;;25.04;73.52;98387.59;4141450;28;20685;-86
2023/09/17 07:11:05;;;;;;;1.92;1.38;;;;;;;25.07;72.49;98383.28;4154626;28;20685;-86
2023/09/17 07:13:06;;;;;;;1.73;1.63;;;;;;;24.72;72.96;98387.63;4141203;28;20205;-87
2023/09/17 07:15:10;;;;;;;5.90;1.50;;;;;;;24.86;72.54;98377.75;4141698;28;20766;-87
2023/09/17 07:17:12;;;;;;;1.20;1.10;;;;;;;25.05;72.72;98378.00;4156514;28;20234;-86
2023/09/17 07:19:21;;;;;;;2.50;1.60;;;;;;;25.68;70.08;98370.97;4141422;28;20236;-86
2023/09/17 07:21:22;;;;;;;1.55;1.33;;;;;;;25.91;67.11;98378.56;4141400;28;20282;-86
2023/09/17 07:23:25;;;;;;;1.20;1.10;;;;;;;26.06;66.55;98375.00;4141313;28;20220;-86
2023/09/17 07:25:26;;;;;;;2.10;1.20;;;;;;;25.57;64.91;98370.63;4142071;28;20274;-87
2023/09/17 07:27:29;;;;;;;1.10;1.00;;;;;;;25.70;68.14;98375.06;4157358;28;20228;-86
2023/09/17 07:29:31;;;;;;;1.40;1.30;;;;;;;25.74;67.63;98381.56;4138497;28;20259;-86
2023/09/17 07:31:32;;;;;;;3.05;1.42;;;;;;;26.13;65.94;98386.44;4123795;28;20213;-87
2023/09/17 07:33:34;;;;;;;2.83;1.67;;;;;;;26.42;66.26;98388.97;4157883;28;20247;-86
2023/09/17 07:35:38;;;;;;;7.40;1.33;;;;;;;25.97;64.48;98391.19;4124225;28;20213;-86
2023/09/17 07:37:40;;;;;;;3.13;1.25;;;;;;;26.07;66.90;98392.69;4139968;28;20236;-87
2023/09/17 07:39:55;;;;;;;1.25;1.15;;;;;;;26.09;68.22;98393.97;4141263;28;20200;-85
2023/09/17 07:41:57;;;;;;;1.38;1.00;;;;;;;25.76;66.20;98387.66;4156723;28;20208;-86
2023/09/17 07:43:58;;;;;;;2.50;1.40;;;;;;;25.58;68.57;98389.06;4141608;28;20247;-85
2023/09/17 07:46:00;;;;;;;3.40;1.30;;;;;;;25.45;68.59;98395.84;4135227;28;20699;-85
2023/09/17 07:48:03;;;;;;;2.22;1.27;;;;;;;25.79;67.76;98395.38;4140630;28;20573;-86
2023/09/17 07:50:05;;;;;;;1.33;1.20;;;;;;;26.03;67.13;98400.97;4142782;28;20220;-85
2023/09/17 07:52:07;;;;;;;0.77;0.77;;;;;;;26.29;66.03;98403.38;4139905;28;20236;-87
2023/09/17 07:54:09;;;;;;;3.30;1.42;;;;;;;26.50;64.98;98395.56;4140516;28;20204;-86
2023/09/17 07:56:21;;;;;;;2.85;1.02;;;;;;;26.32;66.45;98397.06;4124373;28;20659;-86
2023/09/17 07:58:25;;;;;;;1.52;1.02;;;;;;;26.08;65.70;98400.75;4137549;28;20291;-85
2023/09/17 08:00:27;;;;;;;2.05;1.80;;;;;;;26.25;66.30;98403.25;4134128;28;20233;-86
2023/09/17 08:02:29;;;;;;;1.52;1.25;;;;;;;26.13;66.75;98400.47;4120951;28;20625;-86
2023/09/17 08:04:30;;;;;;;5.65;1.23;;;;;;;25.68;69.94;98399.81;4140175;28;20204;-85
2023/09/17 08:06:34;;;;;;;3.67;1.20;;;;;;;26.41;66.64;98400.53;4127077;28;20738;-85
2023/09/17 08:08:36;;;;;;;1.25;1.13;;;;;;;26.71;65.85;98393.41;4134133;28;20288;-87
2023/09/17 08:10:40;;;;;;;3.53;1.13;;;;;;;26.75;65.33;98406.41;4140529;28;20402;-87
2023/09/17 08:12:41;;;;;;;1.65;1.20;;;;;;;25.67;64.55;98403.78;4120255;28;20736;-86
2023/09/17 08:14:51;;;;;;;1.13;0.90;;;;;;;25.42;67.47;98402.16;4139929;28;20564;-86
2023/09/17 08:16:53;;;;;;;1.27;1.17;;;;;;;25.99;65.23;98410.47;4154787;28;20212;-86
2023/09/17 08:18:55;;;;;;;1.80;0.95;;;;;;;26.00;64.67;98403.69;4154341;28;20776;-86
2023/09/17 08:20:58;;;;;;;4.70;0.93;;;;;;;26.22;65.46;98409.59;4153824;28;20232;-87
2023/09/17 08:23:00;;;;;;;2.67;1.30;;;;;;;27.05;62.98;98409.66;4118209;28;20205;-86
2023/09/17 08:25:02;;;;;;;2.30;0.90;;;;;;;27.04;62.96;98406.00;4156913;28;20200;-87
2023/09/17 08:27:04;;;;;;;0.85;0.85;;;;;;;26.13;63.00;98405.28;4121511;28;20209;-86
2023/09/17 08:29:06;;;;;;;1.08;0.70;;;;;;;26.34;63.11;98405.94;4139162;28;20213;-88
2023/09/17 08:31:07;;;;;;;6.93;0.75;;;;;;;26.51;63.95;98406.47;4121547;28;21510;-89
2023/09/17 08:33:10;;;;;;;3.90;1.10;;;;;;;27.50;61.85;98402.44;4122075;28;20241;-89
2023/09/17 08:35:23;;;;;;;1.80;0.80;;;;;;;27.44;60.67;98400.25;4140022;28;20216;-86
2023/09/17 08:37:24;;;;;;;1.15;0.77;;;;;;;26.57;60.35;98399.44;4136982;28;20323;-89
2023/09/17 08:39:26;;;;;;;1.55;0.90;;;;;;;27.26;61.73;98399.81;4122002;28;20217;-88
2023/09/17 08:41:28;;;;;;;2.70;0.82;;;;;;;27.13;60.46;98395.41;4124681;28;20243;-89
2023/09/17 08:43:31;;;;;;;0.80;0.80;;;;;;;27.19;60.52;98398.81;4156993;28;20218;-90
2023/09/17 08:45:33;;;;;;;1.00;0.75;;;;;;;27.91;59.65;98399.06;4140103;28;20300;-89
2023/09/17 08:47:38;;;;;;;9.07;1.27;;;;;;;27.76;59.97;98390.63;4139627;28;20303;-90
2023/09/17 08:50:03;;;;;;;1.73;0.98;;;;;;;27.28;59.56;98400.28;4137062;28;20229;-87
2023/09/17 08:52:17;;;;;;;0.90;0.88;;;;;;;27.11;59.61;98386.53;4141217;28;20209;-86
2023/09/17 08:54:25;;;;;;;0.75;0.73;;;;;;;27.13;58.60;98386.97;4126307;28;20661;-86
2023/09/17 08:56:32;;;;;;;1.35;1.25;;;;;;;27.06;59.82;98392.41;4143267;28;20215;-88
2023/09/17 08:58:38;;;;;;;1.00;0.90;;;;;;;26.94;59.86;98386.88;4143477;28;20239;-85
2023/09/17 09:00:43;;;;;;;0.70;0.70;;;;;;;27.49;59.65;98386.78;4141704;28;20200;-85
2023/09/17 09:02:49;;;;;;;1.38;1.08;;;;;;;28.15;58.64;98393.22;4142508;28;20208;-85
2023/09/17 09:04:51;;;;;;;0.80;0.73;;;;;;;28.27;57.19;98393.09;4138304;28;20227;-87
2023/09/17 09:06:54;;;;;;;1.15;1.05;;;;;;;28.10;59.02;98390.69;4117511;28;20592;-87
2023/09/17 09:09:06;;;;;;;1.50;1.33;;;;;;;28.41;58.06;98396.25;4138637;28;20387;-86
2023/09/17 09:11:08;;;;;;;2.08;0.80;;;;;;;28.25;57.54;98395.44;4136841;28;20232;-88
2023/09/17 09:13:10;;;;;;;1.15;0.93;;;;;;;28.37;57.84;98395.34;4137588;28;20296;-86
2023/09/17 09:15:11;;;;;;;1.45;0.93;;;;;;;28.17;57.79;98390.84;4127611;28;21334;-87
2023/09/17 09:17:36;;;;;;;6.90;1.00;;;;;;;28.09;58.38;98383.44;4143545;28;20281;-91
2023/09/17 09:19:42;;;;;;;1.42;0.70;;;;;;;28.26;57.86;98388.63;4158753;28;20239;-90
2023/09/17 09:21:50;;;;;;;0.82;0.70;;;;;;;28.22;58.36;98390.56;4141030;28;20211;-92
2023/09/17 09:23:59;;;;;;;3.25;1.00;;;;;;;28.57;56.95;98394.16;4160991;28;20254;-90
2023/09/17 09:26:01;;;;;;;2.75;0.82;;;;;;;28.34;57.48;98396.06;4140757;28;20255;-88
2023/09/17 09:28:04;;;;;;;3.15;0.77;;;;;;;28.18;56.12;98392.47;4129129;28;20225;-88
2023/09/17 09:30:19;;;;;;;0.85;0.82;;;;;;;28.22;56.73;98396.19;4146703;28;20220;-90
2023/09/17 09:32:21;;;;;;;3.22;0.60;;;;;;;28.11;57.64;98385.88;4164150;28;20232;-90
2023/09/17 09:34:25;;;;;;;1.40;0.80;;;;;;;27.89;57.29;98381.75;4129514;28;20205;-89
2023/09/17 09:36:28;;;;;;;4.18;1.00;;;;;;;27.91;57.07;98379.38;4145164;28;20208;-87
2023/09/17 09:38:37;;;;;;;2.47;1.13;;;;;;;28.08;56.82;98386.59;4129851;28;20230;-89